sensor_id;sensor_type;location;lat;lon;timestamp;temperature;humidity
13328;DHT22;6733;51.044;3.746;2024-03-17T00:02:24;11.30;65.10
13328;DHT22;6733;51.044;3.746;2024-03-17T00:04:50;11.30;65.20
13328;DHT22;6733;51.044;3.746;2024-03-17T00:07:16;11.30;65.20
13328;DHT22;6733;51.044;3.746;2024-03-17T00:09:42;11.30;65.20
13328;DHT22;6733;51.044;3.746;2024-03-17T00:12:08;11.30;65.20
13328;DHT22;6733;51.044;3.746;2024-03-17T00:14:35;11.20;65.40
13328;DHT22;6733;51.044;3.746;2024-03-17T00:17:01;11.20;65.40
13328;DHT22;6733;51.044;3.746;2024-03-17T00:19:28;11.20;65.50
13328;DHT22;6733;51.044;3.746;2024-03-17T00:21:54;11.10;65.60
13328;DHT22;6733;51.044;3.746;2024-03-17T00:24:20;11.10;65.70
13328;DHT22;6733;51.044;3.746;2024-03-17T00:26:47;11.10;65.80
13328;DHT22;6733;51.044;3.746;2024-03-17T00:29:13;11.10;65.90
13328;DHT22;6733;51.044;3.746;2024-03-17T00:31:41;11.10;66.00
13328;DHT22;6733;51.044;3.746;2024-03-17T00:34:07;11.10;66.00
13328;DHT22;6733;51.044;3.746;2024-03-17T00:36:34;11.10;66.10
13328;DHT22;6733;51.044;3.746;2024-03-17T00:39:00;11.10;66.20
13328;DHT22;6733;51.044;3.746;2024-03-17T00:41:26;11.10;66.20
13328;DHT22;6733;51.044;3.746;2024-03-17T00:43:53;11.10;66.20
13328;DHT22;6733;51.044;3.746;2024-03-17T00:46:20;11.10;66.30
13328;DHT22;6733;51.044;3.746;2024-03-17T00:48:50;11.10;66.30
13328;DHT22;6733;51.044;3.746;2024-03-17T00:51:16;11.10;66.20
13328;DHT22;6733;51.044;3.746;2024-03-17T00:53:43;11.10;66.30
13328;DHT22;6733;51.044;3.746;2024-03-17T00:56:09;11.10;66.30
13328;DHT22;6733;51.044;3.746;2024-03-17T00:58:35;11.10;66.30
13328;DHT22;6733;51.044;3.746;2024-03-17T01:01:01;11.10;66.40
13328;DHT22;6733;51.044;3.746;2024-03-17T01:03:27;11.10;66.50
13328;DHT22;6733;51.044;3.746;2024-03-17T01:05:54;11.10;66.40
13328;DHT22;6733;51.044;3.746;2024-03-17T01:08:20;11.10;66.50
13328;DHT22;6733;51.044;3.746;2024-03-17T01:10:47;11.10;66.50
13328;DHT22;6733;51.044;3.746;2024-03-17T01:13:17;11.10;66.30
13328;DHT22;6733;51.044;3.746;2024-03-17T01:15:43;11.20;66.30
13328;DHT22;6733;51.044;3.746;2024-03-17T01:18:10;11.20;66.30
13328;DHT22;6733;51.044;3.746;2024-03-17T01:20:37;11.10;66.30
13328;DHT22;6733;51.044;3.746;2024-03-17T01:23:04;11.10;66.30
13328;DHT22;6733;51.044;3.746;2024-03-17T01:25:32;11.10;66.30
13328;DHT22;6733;51.044;3.746;2024-03-17T01:28:02;11.10;66.40
13328;DHT22;6733;51.044;3.746;2024-03-17T01:30:28;11.00;66.50
13328;DHT22;6733;51.044;3.746;2024-03-17T01:32:55;11.00;66.60
13328;DHT22;6733;51.044;3.746;2024-03-17T01:35:21;10.90;66.80
13328;DHT22;6733;51.044;3.746;2024-03-17T01:37:48;10.90;67.00
13328;DHT22;6733;51.044;3.746;2024-03-17T01:40:15;10.90;67.10
13328;DHT22;6733;51.044;3.746;2024-03-17T01:42:41;10.80;67.30
13328;DHT22;6733;51.044;3.746;2024-03-17T01:45:31;10.80;67.30
13328;DHT22;6733;51.044;3.746;2024-03-17T01:47:59;10.80;67.40
13328;DHT22;6733;51.044;3.746;2024-03-17T01:50:31;10.70;67.50
13328;DHT22;6733;51.044;3.746;2024-03-17T01:53:00;10.80;67.60
13328;DHT22;6733;51.044;3.746;2024-03-17T01:55:28;10.80;67.60
13328;DHT22;6733;51.044;3.746;2024-03-17T01:57:54;10.80;67.60
13328;DHT22;6733;51.044;3.746;2024-03-17T02:00:21;10.80;67.60
13328;DHT22;6733;51.044;3.746;2024-03-17T02:02:47;10.90;67.50
13328;DHT22;6733;51.044;3.746;2024-03-17T02:05:13;10.80;67.50
13328;DHT22;6733;51.044;3.746;2024-03-17T02:07:40;10.80;67.60
13328;DHT22;6733;51.044;3.746;2024-03-17T02:10:07;10.80;67.60
13328;DHT22;6733;51.044;3.746;2024-03-17T02:12:35;10.80;67.60
13328;DHT22;6733;51.044;3.746;2024-03-17T02:15:02;10.80;67.70
13328;DHT22;6733;51.044;3.746;2024-03-17T02:17:34;10.80;67.60
13328;DHT22;6733;51.044;3.746;2024-03-17T02:20:00;10.80;67.70
13328;DHT22;6733;51.044;3.746;2024-03-17T02:22:27;10.80;67.60
13328;DHT22;6733;51.044;3.746;2024-03-17T02:24:56;10.80;67.60
13328;DHT22;6733;51.044;3.746;2024-03-17T02:27:22;10.80;67.60
13328;DHT22;6733;51.044;3.746;2024-03-17T02:29:48;10.70;67.70
13328;DHT22;6733;51.044;3.746;2024-03-17T02:32:14;10.70;67.80
13328;DHT22;6733;51.044;3.746;2024-03-17T02:34:41;10.60;67.90
13328;DHT22;6733;51.044;3.746;2024-03-17T02:37:07;10.60;68.10
13328;DHT22;6733;51.044;3.746;2024-03-17T02:39:58;10.60;68.20
13328;DHT22;6733;51.044;3.746;2024-03-17T02:42:49;10.60;68.20
13328;DHT22;6733;51.044;3.746;2024-03-17T02:45:43;10.60;68.30
13328;DHT22;6733;51.044;3.746;2024-03-17T02:48:35;10.50;68.50
13328;DHT22;6733;51.044;3.746;2024-03-17T02:51:27;10.50;68.50
13328;DHT22;6733;51.044;3.746;2024-03-17T02:54:18;10.40;68.60
13328;DHT22;6733;51.044;3.746;2024-03-17T02:57:09;10.40;68.70
13328;DHT22;6733;51.044;3.746;2024-03-17T02:59:35;10.40;68.90
13328;DHT22;6733;51.044;3.746;2024-03-17T03:02:02;10.30;69.00
13328;DHT22;6733;51.044;3.746;2024-03-17T03:04:28;10.30;69.10
13328;DHT22;6733;51.044;3.746;2024-03-17T03:06:54;10.30;69.20
13328;DHT22;6733;51.044;3.746;2024-03-17T03:09:20;10.30;69.30
13328;DHT22;6733;51.044;3.746;2024-03-17T03:11:52;10.30;69.40
13328;DHT22;6733;51.044;3.746;2024-03-17T03:14:19;10.30;69.40
13328;DHT22;6733;51.044;3.746;2024-03-17T03:16:45;10.30;69.50
13328;DHT22;6733;51.044;3.746;2024-03-17T03:19:11;10.30;69.50
13328;DHT22;6733;51.044;3.746;2024-03-17T03:21:38;10.30;69.50
13328;DHT22;6733;51.044;3.746;2024-03-17T03:24:04;10.30;69.50
13328;DHT22;6733;51.044;3.746;2024-03-17T03:26:30;10.30;69.60
13328;DHT22;6733;51.044;3.746;2024-03-17T03:28:56;10.30;69.60
13328;DHT22;6733;51.044;3.746;2024-03-17T03:31:22;10.20;69.70
13328;DHT22;6733;51.044;3.746;2024-03-17T03:33:48;10.20;69.90
13328;DHT22;6733;51.044;3.746;2024-03-17T03:36:15;10.20;69.90
13328;DHT22;6733;51.044;3.746;2024-03-17T03:38:44;10.20;70.00
13328;DHT22;6733;51.044;3.746;2024-03-17T03:41:15;10.20;70.00
13328;DHT22;6733;51.044;3.746;2024-03-17T03:43:42;10.20;70.10
13328;DHT22;6733;51.044;3.746;2024-03-17T03:46:09;10.20;70.00
13328;DHT22;6733;51.044;3.746;2024-03-17T03:48:35;10.20;70.10
13328;DHT22;6733;51.044;3.746;2024-03-17T03:51:05;10.20;70.10
13328;DHT22;6733;51.044;3.746;2024-03-17T03:53:32;10.10;70.20
13328;DHT22;6733;51.044;3.746;2024-03-17T03:55:59;10.10;70.30
13328;DHT22;6733;51.044;3.746;2024-03-17T03:58:28;10.10;70.30
13328;DHT22;6733;51.044;3.746;2024-03-17T04:00:55;10.10;70.40
13328;DHT22;6733;51.044;3.746;2024-03-17T04:03:22;10.10;70.50
13328;DHT22;6733;51.044;3.746;2024-03-17T04:05:48;10.10;70.50
13328;DHT22;6733;51.044;3.746;2024-03-17T04:08:14;10.10;70.60
13328;DHT22;6733;51.044;3.746;2024-03-17T04:10:43;10.00;70.80
13328;DHT22;6733;51.044;3.746;2024-03-17T04:13:09;10.00;70.80
13328;DHT22;6733;51.044;3.746;2024-03-17T04:15:35;10.00;71.00
13328;DHT22;6733;51.044;3.746;2024-03-17T04:18:02;10.00;71.00
13328;DHT22;6733;51.044;3.746;2024-03-17T04:20:28;10.00;71.10
13328;DHT22;6733;51.044;3.746;2024-03-17T04:22:54;10.00;71.10
13328;DHT22;6733;51.044;3.746;2024-03-17T04:25:20;10.00;71.10
13328;DHT22;6733;51.044;3.746;2024-03-17T04:27:46;10.00;71.20
13328;DHT22;6733;51.044;3.746;2024-03-17T04:30:12;10.00;71.20
13328;DHT22;6733;51.044;3.746;2024-03-17T04:32:40;10.00;71.30
13328;DHT22;6733;51.044;3.746;2024-03-17T04:35:06;10.00;71.30
13328;DHT22;6733;51.044;3.746;2024-03-17T04:37:33;10.00;71.30
13328;DHT22;6733;51.044;3.746;2024-03-17T04:40:05;10.00;71.30
13328;DHT22;6733;51.044;3.746;2024-03-17T04:42:35;10.00;71.30
13328;DHT22;6733;51.044;3.746;2024-03-17T04:45:01;10.00;71.40
13328;DHT22;6733;51.044;3.746;2024-03-17T04:47:28;10.00;71.50
13328;DHT22;6733;51.044;3.746;2024-03-17T04:49:54;10.00;71.40
13328;DHT22;6733;51.044;3.746;2024-03-17T04:52:20;10.10;71.40
13328;DHT22;6733;51.044;3.746;2024-03-17T04:54:46;10.10;71.40
13328;DHT22;6733;51.044;3.746;2024-03-17T04:57:13;10.10;71.40
13328;DHT22;6733;51.044;3.746;2024-03-17T04:59:39;10.10;71.40
13328;DHT22;6733;51.044;3.746;2024-03-17T05:02:06;10.10;71.40
13328;DHT22;6733;51.044;3.746;2024-03-17T05:04:32;10.10;71.40
13328;DHT22;6733;51.044;3.746;2024-03-17T05:06:58;10.10;71.40
13328;DHT22;6733;51.044;3.746;2024-03-17T05:09:24;10.20;71.40
13328;DHT22;6733;51.044;3.746;2024-03-17T05:11:51;10.20;71.50
13328;DHT22;6733;51.044;3.746;2024-03-17T05:14:20;10.20;71.60
13328;DHT22;6733;51.044;3.746;2024-03-17T05:16:52;10.20;71.50
13328;DHT22;6733;51.044;3.746;2024-03-17T05:19:18;10.20;71.40
13328;DHT22;6733;51.044;3.746;2024-03-17T05:21:45;10.20;71.40
13328;DHT22;6733;51.044;3.746;2024-03-17T05:24:12;10.20;71.30
13328;DHT22;6733;51.044;3.746;2024-03-17T05:26:39;10.30;71.20
13328;DHT22;6733;51.044;3.746;2024-03-17T05:29:05;10.30;71.20
13328;DHT22;6733;51.044;3.746;2024-03-17T05:31:31;10.30;71.20
13328;DHT22;6733;51.044;3.746;2024-03-17T05:33:57;10.30;71.20
13328;DHT22;6733;51.044;3.746;2024-03-17T05:36:23;10.40;71.10
13328;DHT22;6733;51.044;3.746;2024-03-17T05:38:50;10.40;71.10
13328;DHT22;6733;51.044;3.746;2024-03-17T05:41:16;10.40;71.10
13328;DHT22;6733;51.044;3.746;2024-03-17T05:43:42;10.40;71.30
13328;DHT22;6733;51.044;3.746;2024-03-17T05:46:12;10.40;71.20
13328;DHT22;6733;51.044;3.746;2024-03-17T05:48:41;10.40;71.10
13328;DHT22;6733;51.044;3.746;2024-03-17T05:51:09;10.50;71.10
13328;DHT22;6733;51.044;3.746;2024-03-17T05:53:37;10.50;71.00
13328;DHT22;6733;51.044;3.746;2024-03-17T05:56:06;10.40;71.10
13328;DHT22;6733;51.044;3.746;2024-03-17T05:58:37;10.50;71.00
13328;DHT22;6733;51.044;3.746;2024-03-17T06:01:04;10.50;70.90
13328;DHT22;6733;51.044;3.746;2024-03-17T06:03:36;10.60;70.80
13328;DHT22;6733;51.044;3.746;2024-03-17T06:06:03;10.60;70.90
13328;DHT22;6733;51.044;3.746;2024-03-17T06:08:30;10.60;71.00
13328;DHT22;6733;51.044;3.746;2024-03-17T06:10:56;10.60;71.00
13328;DHT22;6733;51.044;3.746;2024-03-17T06:13:26;10.70;70.90
13328;DHT22;6733;51.044;3.746;2024-03-17T06:15:54;10.70;70.70
13328;DHT22;6733;51.044;3.746;2024-03-17T06:18:21;10.70;70.70
13328;DHT22;6733;51.044;3.746;2024-03-17T06:20:47;10.80;70.50
13328;DHT22;6733;51.044;3.746;2024-03-17T06:23:15;10.80;70.50
13328;DHT22;6733;51.044;3.746;2024-03-17T06:25:46;10.80;70.50
13328;DHT22;6733;51.044;3.746;2024-03-17T06:28:14;10.90;70.40
13328;DHT22;6733;51.044;3.746;2024-03-17T06:30:42;10.90;70.30
13328;DHT22;6733;51.044;3.746;2024-03-17T06:33:11;10.90;70.30
13328;DHT22;6733;51.044;3.746;2024-03-17T06:35:38;10.90;70.50
13328;DHT22;6733;51.044;3.746;2024-03-17T06:38:04;10.90;70.50
13328;DHT22;6733;51.044;3.746;2024-03-17T06:40:30;11.00;70.60
13328;DHT22;6733;51.044;3.746;2024-03-17T06:42:57;11.00;70.40
13328;DHT22;6733;51.044;3.746;2024-03-17T06:45:23;11.00;70.30
13328;DHT22;6733;51.044;3.746;2024-03-17T06:47:50;11.10;70.20
13328;DHT22;6733;51.044;3.746;2024-03-17T06:50:16;11.10;70.20
13328;DHT22;6733;51.044;3.746;2024-03-17T06:52:42;11.10;70.10
13328;DHT22;6733;51.044;3.746;2024-03-17T06:55:08;11.20;70.00
13328;DHT22;6733;51.044;3.746;2024-03-17T06:57:35;11.30;70.00
13328;DHT22;6733;51.044;3.746;2024-03-17T07:00:02;11.30;70.00
13328;DHT22;6733;51.044;3.746;2024-03-17T07:02:32;11.30;69.90
13328;DHT22;6733;51.044;3.746;2024-03-17T07:04:58;11.30;69.80
13328;DHT22;6733;51.044;3.746;2024-03-17T07:07:27;11.40;69.90
13328;DHT22;6733;51.044;3.746;2024-03-17T07:09:54;11.40;69.80
13328;DHT22;6733;51.044;3.746;2024-03-17T07:12:20;11.50;69.60
13328;DHT22;6733;51.044;3.746;2024-03-17T07:14:50;11.60;69.60
13328;DHT22;6733;51.044;3.746;2024-03-17T07:17:16;11.60;69.60
13328;DHT22;6733;51.044;3.746;2024-03-17T07:19:42;11.60;69.50
13328;DHT22;6733;51.044;3.746;2024-03-17T07:22:09;11.70;69.40
13328;DHT22;6733;51.044;3.746;2024-03-17T07:24:35;11.70;69.20
13328;DHT22;6733;51.044;3.746;2024-03-17T07:27:01;11.80;69.20
13328;DHT22;6733;51.044;3.746;2024-03-17T07:29:27;11.80;68.90
13328;DHT22;6733;51.044;3.746;2024-03-17T07:31:53;11.90;69.00
13328;DHT22;6733;51.044;3.746;2024-03-17T07:34:19;11.90;69.20
13328;DHT22;6733;51.044;3.746;2024-03-17T07:36:46;12.00;69.20
13328;DHT22;6733;51.044;3.746;2024-03-17T07:39:12;12.00;68.90
13328;DHT22;6733;51.044;3.746;2024-03-17T07:41:38;12.10;68.90
13328;DHT22;6733;51.044;3.746;2024-03-17T07:44:04;12.10;68.80
13328;DHT22;6733;51.044;3.746;2024-03-17T07:46:31;12.10;68.90
13328;DHT22;6733;51.044;3.746;2024-03-17T07:48:57;12.10;68.90
13328;DHT22;6733;51.044;3.746;2024-03-17T07:51:23;12.10;68.70
13328;DHT22;6733;51.044;3.746;2024-03-17T07:53:49;12.20;68.70
13328;DHT22;6733;51.044;3.746;2024-03-17T07:56:17;12.20;68.80
13328;DHT22;6733;51.044;3.746;2024-03-17T07:58:45;12.30;68.80
13328;DHT22;6733;51.044;3.746;2024-03-17T08:01:15;12.40;68.90
13328;DHT22;6733;51.044;3.746;2024-03-17T08:03:46;12.40;68.80
13328;DHT22;6733;51.044;3.746;2024-03-17T08:06:15;12.50;68.60
13328;DHT22;6733;51.044;3.746;2024-03-17T08:08:41;12.60;68.50
13328;DHT22;6733;51.044;3.746;2024-03-17T08:11:07;12.60;68.30
13328;DHT22;6733;51.044;3.746;2024-03-17T08:13:33;12.70;68.20
13328;DHT22;6733;51.044;3.746;2024-03-17T08:16:01;12.70;68.30
13328;DHT22;6733;51.044;3.746;2024-03-17T08:18:28;12.80;68.60
13328;DHT22;6733;51.044;3.746;2024-03-17T08:20:55;12.90;69.10
13328;DHT22;6733;51.044;3.746;2024-03-17T08:23:24;12.90;69.70
13328;DHT22;6733;51.044;3.746;2024-03-17T08:25:58;12.90;70.40
13328;DHT22;6733;51.044;3.746;2024-03-17T08:28:25;13.00;71.00
13328;DHT22;6733;51.044;3.746;2024-03-17T08:30:53;13.00;71.50
13328;DHT22;6733;51.044;3.746;2024-03-17T08:33:20;13.00;72.10
13328;DHT22;6733;51.044;3.746;2024-03-17T08:36:04;13.10;72.50
13328;DHT22;6733;51.044;3.746;2024-03-17T08:38:31;13.20;73.00
13328;DHT22;6733;51.044;3.746;2024-03-17T08:41:02;13.10;73.60
13328;DHT22;6733;51.044;3.746;2024-03-17T08:43:29;13.10;74.00
13328;DHT22;6733;51.044;3.746;2024-03-17T08:45:59;13.20;74.20
13328;DHT22;6733;51.044;3.746;2024-03-17T08:48:29;13.20;74.00
13328;DHT22;6733;51.044;3.746;2024-03-17T08:50:57;13.20;74.20
13328;DHT22;6733;51.044;3.746;2024-03-17T08:53:23;13.20;74.20
13328;DHT22;6733;51.044;3.746;2024-03-17T08:55:50;13.20;74.20
13328;DHT22;6733;51.044;3.746;2024-03-17T08:58:17;13.20;74.30
13328;DHT22;6733;51.044;3.746;2024-03-17T09:00:43;13.10;74.50
13328;DHT22;6733;51.044;3.746;2024-03-17T09:03:09;13.10;74.90
13328;DHT22;6733;51.044;3.746;2024-03-17T09:05:40;13.10;75.10
13328;DHT22;6733;51.044;3.746;2024-03-17T09:08:07;13.10;75.40
13328;DHT22;6733;51.044;3.746;2024-03-17T09:10:40;13.10;75.90
13328;DHT22;6733;51.044;3.746;2024-03-17T09:13:14;13.10;76.20
13328;DHT22;6733;51.044;3.746;2024-03-17T09:18:23;13.10;76.20
13328;DHT22;6733;51.044;3.746;2024-03-17T09:21:07;13.20;76.30
13328;DHT22;6733;51.044;3.746;2024-03-17T09:23:35;13.20;76.70
13328;DHT22;6733;51.044;3.746;2024-03-17T09:26:03;13.20;76.70
13328;DHT22;6733;51.044;3.746;2024-03-17T09:28:31;13.20;77.00
13328;DHT22;6733;51.044;3.746;2024-03-17T09:30:58;13.20;77.00
13328;DHT22;6733;51.044;3.746;2024-03-17T09:33:26;13.20;77.60
13328;DHT22;6733;51.044;3.746;2024-03-17T09:36:05;13.20;77.90
13328;DHT22;6733;51.044;3.746;2024-03-17T09:38:33;13.20;78.20
13328;DHT22;6733;51.044;3.746;2024-03-17T09:40:59;13.20;78.40
13328;DHT22;6733;51.044;3.746;2024-03-17T09:43:31;13.20;79.00
13328;DHT22;6733;51.044;3.746;2024-03-17T09:45:57;13.20;79.20
13328;DHT22;6733;51.044;3.746;2024-03-17T09:48:25;13.30;79.30
13328;DHT22;6733;51.044;3.746;2024-03-17T09:50:54;13.30;79.10
13328;DHT22;6733;51.044;3.746;2024-03-17T09:55:52;13.20;78.90
13328;DHT22;6733;51.044;3.746;2024-03-17T09:58:19;13.30;78.90
13328;DHT22;6733;51.044;3.746;2024-03-17T10:00:46;13.30;78.80
13328;DHT22;6733;51.044;3.746;2024-03-17T10:03:42;13.30;78.70
13328;DHT22;6733;51.044;3.746;2024-03-17T10:06:14;13.30;78.40
13328;DHT22;6733;51.044;3.746;2024-03-17T10:08:48;13.40;78.20
13328;DHT22;6733;51.044;3.746;2024-03-17T10:11:23;13.50;77.90
13328;DHT22;6733;51.044;3.746;2024-03-17T10:14:08;13.60;77.40
13328;DHT22;6733;51.044;3.746;2024-03-17T10:16:36;13.70;76.50
13328;DHT22;6733;51.044;3.746;2024-03-17T10:19:14;13.70;76.30
13328;DHT22;6733;51.044;3.746;2024-03-17T10:21:42;13.70;76.40
13328;DHT22;6733;51.044;3.746;2024-03-17T10:24:12;13.80;76.30
13328;DHT22;6733;51.044;3.746;2024-03-17T10:29:31;14.00;75.80
13328;DHT22;6733;51.044;3.746;2024-03-17T10:32:14;14.10;75.40
13328;DHT22;6733;51.044;3.746;2024-03-17T10:34:40;14.30;75.00
13328;DHT22;6733;51.044;3.746;2024-03-17T10:37:10;14.50;74.60
13328;DHT22;6733;51.044;3.746;2024-03-17T10:39:41;14.60;74.20
13328;DHT22;6733;51.044;3.746;2024-03-17T10:42:09;14.80;73.70
13328;DHT22;6733;51.044;3.746;2024-03-17T10:44:39;15.00;73.10
13328;DHT22;6733;51.044;3.746;2024-03-17T10:47:07;15.20;72.30
13328;DHT22;6733;51.044;3.746;2024-03-17T10:49:42;15.40;71.70
13328;DHT22;6733;51.044;3.746;2024-03-17T10:52:16;15.60;71.70
13328;DHT22;6733;51.044;3.746;2024-03-17T10:54:51;15.70;71.40
13328;DHT22;6733;51.044;3.746;2024-03-17T10:57:46;15.90;70.70
13328;DHT22;6733;51.044;3.746;2024-03-17T11:00:17;15.90;70.00
13328;DHT22;6733;51.044;3.746;2024-03-17T11:02:45;16.00;70.60
13328;DHT22;6733;51.044;3.746;2024-03-17T11:05:18;16.10;70.00
13328;DHT22;6733;51.044;3.746;2024-03-17T11:07:46;16.10;70.00
13328;DHT22;6733;51.044;3.746;2024-03-17T11:10:23;16.20;70.10
13328;DHT22;6733;51.044;3.746;2024-03-17T11:12:59;16.30;70.00
13328;DHT22;6733;51.044;3.746;2024-03-17T11:21:18;16.60;69.20
13328;DHT22;6733;51.044;3.746;2024-03-17T11:24:01;16.90;69.00
13328;DHT22;6733;51.044;3.746;2024-03-17T11:26:29;17.10;68.00
13328;DHT22;6733;51.044;3.746;2024-03-17T11:28:56;17.30;67.50
13328;DHT22;6733;51.044;3.746;2024-03-17T11:31:41;17.40;67.10
13328;DHT22;6733;51.044;3.746;2024-03-17T11:34:30;17.50;67.30
13328;DHT22;6733;51.044;3.746;2024-03-17T11:36:58;17.50;66.20
13328;DHT22;6733;51.044;3.746;2024-03-17T11:42:13;17.70;66.50
13328;DHT22;6733;51.044;3.746;2024-03-17T11:44:54;17.80;66.10
13328;DHT22;6733;51.044;3.746;2024-03-17T11:47:21;17.90;65.80
13328;DHT22;6733;51.044;3.746;2024-03-17T11:49:47;18.00;65.60
13328;DHT22;6733;51.044;3.746;2024-03-17T11:52:16;18.20;65.60
13328;DHT22;6733;51.044;3.746;2024-03-17T11:54:46;18.30;65.10
13328;DHT22;6733;51.044;3.746;2024-03-17T11:57:21;18.40;64.70
13328;DHT22;6733;51.044;3.746;2024-03-17T11:59:51;18.50;64.00
13328;DHT22;6733;51.044;3.746;2024-03-17T12:02:29;18.40;64.70
13328;DHT22;6733;51.044;3.746;2024-03-17T12:05:00;18.40;64.60
13328;DHT22;6733;51.044;3.746;2024-03-17T12:07:27;18.50;64.70
13328;DHT22;6733;51.044;3.746;2024-03-17T12:09:56;18.50;64.50
13328;DHT22;6733;51.044;3.746;2024-03-17T12:12:25;18.70;64.40
13328;DHT22;6733;51.044;3.746;2024-03-17T12:15:01;18.80;64.10
13328;DHT22;6733;51.044;3.746;2024-03-17T12:17:28;18.90;63.70
13328;DHT22;6733;51.044;3.746;2024-03-17T12:19:55;18.80;63.10
13328;DHT22;6733;51.044;3.746;2024-03-17T12:22:25;18.70;63.20
13328;DHT22;6733;51.044;3.746;2024-03-17T12:24:55;18.60;63.30
13328;DHT22;6733;51.044;3.746;2024-03-17T12:27:25;18.50;63.70
13328;DHT22;6733;51.044;3.746;2024-03-17T12:29:55;18.40;64.20
13328;DHT22;6733;51.044;3.746;2024-03-17T12:32:22;18.40;64.10
13328;DHT22;6733;51.044;3.746;2024-03-17T12:34:51;18.30;64.30
13328;DHT22;6733;51.044;3.746;2024-03-17T12:37:25;18.20;64.30
13328;DHT22;6733;51.044;3.746;2024-03-17T12:39:56;18.30;64.50
13328;DHT22;6733;51.044;3.746;2024-03-17T12:42:26;18.40;64.60
13328;DHT22;6733;51.044;3.746;2024-03-17T12:45:00;18.40;64.60
13328;DHT22;6733;51.044;3.746;2024-03-17T12:47:32;18.50;64.50
13328;DHT22;6733;51.044;3.746;2024-03-17T12:50:01;18.50;64.80
13328;DHT22;6733;51.044;3.746;2024-03-17T12:52:32;18.60;64.50
13328;DHT22;6733;51.044;3.746;2024-03-17T12:55:06;18.70;64.10
13328;DHT22;6733;51.044;3.746;2024-03-17T13:01:05;18.90;64.00
13328;DHT22;6733;51.044;3.746;2024-03-17T13:03:36;19.00;63.80
13328;DHT22;6733;51.044;3.746;2024-03-17T13:06:03;19.00;63.50
13328;DHT22;6733;51.044;3.746;2024-03-17T13:08:32;19.00;63.40
13328;DHT22;6733;51.044;3.746;2024-03-17T13:10:59;18.90;63.30
13328;DHT22;6733;51.044;3.746;2024-03-17T13:13:26;18.70;63.60
13328;DHT22;6733;51.044;3.746;2024-03-17T13:15:52;18.60;63.50
13328;DHT22;6733;51.044;3.746;2024-03-17T13:18:19;18.50;63.70
13328;DHT22;6733;51.044;3.746;2024-03-17T13:20:46;18.50;63.80
13328;DHT22;6733;51.044;3.746;2024-03-17T13:23:13;18.50;63.90
13328;DHT22;6733;51.044;3.746;2024-03-17T13:25:39;18.60;64.10
13328;DHT22;6733;51.044;3.746;2024-03-17T13:28:09;18.50;63.80
13328;DHT22;6733;51.044;3.746;2024-03-17T13:30:36;18.50;64.40
13328;DHT22;6733;51.044;3.746;2024-03-17T13:33:03;18.40;65.20
13328;DHT22;6733;51.044;3.746;2024-03-17T13:35:38;18.40;65.70
13328;DHT22;6733;51.044;3.746;2024-03-17T13:38:09;18.20;65.90
13328;DHT22;6733;51.044;3.746;2024-03-17T13:40:39;18.10;66.20
13328;DHT22;6733;51.044;3.746;2024-03-17T13:43:05;18.10;66.70
13328;DHT22;6733;51.044;3.746;2024-03-17T13:45:39;18.20;67.40
13328;DHT22;6733;51.044;3.746;2024-03-17T13:48:06;18.10;67.60
13328;DHT22;6733;51.044;3.746;2024-03-17T13:50:37;18.00;67.30
13328;DHT22;6733;51.044;3.746;2024-03-17T13:53:04;18.10;67.70
13328;DHT22;6733;51.044;3.746;2024-03-17T13:55:30;18.00;67.90
13328;DHT22;6733;51.044;3.746;2024-03-17T13:57:57;18.00;67.80
13328;DHT22;6733;51.044;3.746;2024-03-17T14:00:28;18.00;68.40
13328;DHT22;6733;51.044;3.746;2024-03-17T14:02:55;18.00;68.60
13328;DHT22;6733;51.044;3.746;2024-03-17T14:05:23;18.00;68.40
13328;DHT22;6733;51.044;3.746;2024-03-17T14:07:52;17.90;68.80
13328;DHT22;6733;51.044;3.746;2024-03-17T14:10:21;17.80;69.10
13328;DHT22;6733;51.044;3.746;2024-03-17T14:12:48;17.90;69.60
13328;DHT22;6733;51.044;3.746;2024-03-17T14:15:14;17.90;69.60
13328;DHT22;6733;51.044;3.746;2024-03-17T14:17:42;17.90;69.70
13328;DHT22;6733;51.044;3.746;2024-03-17T14:20:09;17.90;70.00
13328;DHT22;6733;51.044;3.746;2024-03-17T14:22:42;18.00;69.80
13328;DHT22;6733;51.044;3.746;2024-03-17T14:25:10;17.90;69.90
13328;DHT22;6733;51.044;3.746;2024-03-17T14:27:38;17.80;69.70
13328;DHT22;6733;51.044;3.746;2024-03-17T14:30:05;17.70;70.00
13328;DHT22;6733;51.044;3.746;2024-03-17T14:32:32;17.70;70.40
13328;DHT22;6733;51.044;3.746;2024-03-17T14:34:58;17.70;70.60
13328;DHT22;6733;51.044;3.746;2024-03-17T14:37:24;17.60;69.90
13328;DHT22;6733;51.044;3.746;2024-03-17T14:39:54;17.60;69.80
13328;DHT22;6733;51.044;3.746;2024-03-17T14:42:20;17.60;70.10
13328;DHT22;6733;51.044;3.746;2024-03-17T14:44:47;17.60;70.00
13328;DHT22;6733;51.044;3.746;2024-03-17T14:47:14;17.60;69.80
13328;DHT22;6733;51.044;3.746;2024-03-17T14:49:40;17.60;69.70
13328;DHT22;6733;51.044;3.746;2024-03-17T14:52:08;17.60;69.70
13328;DHT22;6733;51.044;3.746;2024-03-17T14:54:35;17.50;69.80
13328;DHT22;6733;51.044;3.746;2024-03-17T14:57:01;17.40;70.20
13328;DHT22;6733;51.044;3.746;2024-03-17T14:59:28;17.30;70.50
13328;DHT22;6733;51.044;3.746;2024-03-17T15:01:55;17.20;71.00
13328;DHT22;6733;51.044;3.746;2024-03-17T15:04:21;17.10;71.40
13328;DHT22;6733;51.044;3.746;2024-03-17T15:06:47;17.10;71.80
13328;DHT22;6733;51.044;3.746;2024-03-17T15:09:13;16.90;72.10
13328;DHT22;6733;51.044;3.746;2024-03-17T15:11:45;16.90;72.10
13328;DHT22;6733;51.044;3.746;2024-03-17T15:14:12;16.80;72.40
13328;DHT22;6733;51.044;3.746;2024-03-17T15:16:39;16.80;72.50
13328;DHT22;6733;51.044;3.746;2024-03-17T15:19:06;16.70;72.90
13328;DHT22;6733;51.044;3.746;2024-03-17T15:21:33;16.60;73.40
13328;DHT22;6733;51.044;3.746;2024-03-17T15:24:00;16.50;74.10
13328;DHT22;6733;51.044;3.746;2024-03-17T15:26:29;16.30;74.70
13328;DHT22;6733;51.044;3.746;2024-03-17T15:28:55;16.20;75.00
13328;DHT22;6733;51.044;3.746;2024-03-17T15:31:22;16.00;75.70
13328;DHT22;6733;51.044;3.746;2024-03-17T15:33:50;15.90;76.30
13328;DHT22;6733;51.044;3.746;2024-03-17T15:36:17;15.80;77.00
13328;DHT22;6733;51.044;3.746;2024-03-17T15:38:43;15.70;77.10
13328;DHT22;6733;51.044;3.746;2024-03-17T15:41:10;15.60;77.60
13328;DHT22;6733;51.044;3.746;2024-03-17T15:43:37;15.50;78.10
13328;DHT22;6733;51.044;3.746;2024-03-17T15:46:16;15.50;78.40
13328;DHT22;6733;51.044;3.746;2024-03-17T15:48:44;15.50;78.50
13328;DHT22;6733;51.044;3.746;2024-03-17T15:51:11;15.50;78.70
13328;DHT22;6733;51.044;3.746;2024-03-17T15:53:37;15.50;79.00
13328;DHT22;6733;51.044;3.746;2024-03-17T15:56:05;15.40;79.20
13328;DHT22;6733;51.044;3.746;2024-03-17T15:58:32;15.40;79.40
13328;DHT22;6733;51.044;3.746;2024-03-17T16:00:59;15.40;79.40
13328;DHT22;6733;51.044;3.746;2024-03-17T16:03:31;15.40;79.40
13328;DHT22;6733;51.044;3.746;2024-03-17T16:06:13;15.40;79.50
13328;DHT22;6733;51.044;3.746;2024-03-17T16:08:49;15.30;79.70
13328;DHT22;6733;51.044;3.746;2024-03-17T16:11:23;15.30;79.70
13328;DHT22;6733;51.044;3.746;2024-03-17T16:14:03;15.20;80.00
13328;DHT22;6733;51.044;3.746;2024-03-17T16:16:30;15.20;80.20